< Typhoon 200913 2009 Season Typhoon 200915 >
Typhoon 200914 (CHOI-WAN)
General InformationTrack Information on Google MapsDetailed Wind InformationAccess Analytics MapList of All Images || NewsDisaster Info.WeblogTrackbackTyphoon FrontTyphoon ImaginationResourceGoogle EarthGE AnimationAtom FeedGeoJSON
Detalied Best Track (Time Zone = UTC)
Year Month Day Hour Lat. Long. Pressure (hPa) Wind (kt) Class Image Chart
2009 9 12 00 14.3 153.5 1008 0 2 Image Chart
2009 9 12 06 14.9 152.6 1006 0 2 Image Chart
2009 9 12 12 15.0 152.0 1004 0 2 Image Chart
2009 9 12 18 15.4 150.9 1002 35 3 Image Chart
2009 9 13 00 16.0 150.0 998 45 3 Image Chart
2009 9 13 06 15.8 149.3 994 50 4 Image Chart
2009 9 13 12 15.7 148.7 990 55 4 Image Chart
2009 9 13 18 15.6 148.7 980 60 4 Image Chart
2009 9 14 00 15.6 148.3 965 70 5 Image Chart
2009 9 14 06 15.7 147.8 955 80 5 Image Chart
2009 9 14 12 16.3 147.5 945 85 5 Image Chart
2009 9 14 18 16.6 147.0 935 95 5 Image Chart
2009 9 15 00 17.1 146.6 935 95 5 Image Chart
2009 9 15 06 17.6 145.7 925 100 5 Image Chart
2009 9 15 12 17.9 145.0 915 105 5 Image Chart
2009 9 15 18 18.2 144.2 915 105 5 Image Chart
2009 9 16 00 18.6 143.4 915 105 5 Image Chart
2009 9 16 06 19.0 142.6 915 105 5 Image Chart
2009 9 16 12 19.2 141.9 915 105 5 Image Chart
2009 9 16 18 19.6 141.4 915 105 5 Image Chart
2009 9 17 00 20.3 140.9 925 100 5 Image Chart
2009 9 17 06 21.0 140.3 935 95 5 Image Chart
2009 9 17 12 21.6 139.8 935 95 5 Image Chart
2009 9 17 18 22.5 139.3 945 85 5 Image Chart
2009 9 18 00 23.2 138.9 945 85 5 Image Chart
2009 9 18 06 24.1 138.8 950 80 5 Image Chart
2009 9 18 12 25.2 139.1 955 75 5 Image Chart
2009 9 18 18 26.4 139.6 960 70 5 Image Chart
2009 9 18 21 27.0 139.7 960 70 5 Image Chart
2009 9 19 00 27.7 140.4 960 70 5 Image Chart
2009 9 19 03 28.4 141.0 960 70 5 Image Chart
2009 9 19 06 29.1 141.6 960 70 5 Image Chart
2009 9 19 09 29.8 142.4 960 70 5 Image Chart
2009 9 19 12 30.5 143.3 965 70 5 Image Chart
2009 9 19 18 32.7 145.1 970 70 5 Image Chart
2009 9 20 00 34.1 146.8 975 65 5 Image Chart
2009 9 20 06 35.1 149.1 980 60 4 Image Chart
2009 9 20 12 36.8 152.3 986 0 6 Image Chart
2009 9 20 18 38.8 156.1 990 0 6 Image Chart
Japan Meteorological Agency Best Track Data | Correction Date : 2010-03-26
< Typhoon 200913 2009 Season Typhoon 200915 >

Help